createdAt,value
2023-05-14T00:00:03.755Z,981.02
2023-05-14T00:01:03.623Z,981.05
2023-05-14T00:02:03.741Z,981.11
2023-05-14T00:03:03.792Z,981.02
2023-05-14T00:04:03.809Z,980.97
2023-05-14T00:06:03.795Z,981.05
2023-05-14T00:07:03.747Z,980.94
2023-05-14T00:08:03.658Z,981.03
2023-05-14T00:10:03.701Z,980.98
2023-05-14T00:11:03.720Z,980.89
2023-05-14T00:12:03.674Z,981.03
2023-05-14T00:13:03.996Z,980.95
2023-05-14T00:15:03.665Z,980.98
2023-05-14T00:16:03.682Z,980.87
2023-05-14T00:17:03.695Z,980.84
2023-05-14T00:18:03.925Z,980.76
2023-05-14T00:19:03.771Z,980.84
2023-05-14T00:20:03.805Z,980.85
2023-05-14T00:21:03.799Z,980.79
2023-05-14T00:22:03.880Z,980.82
2023-05-14T00:25:03.693Z,980.80
2023-05-14T00:26:03.652Z,980.88
2023-05-14T00:27:03.666Z,980.74
2023-05-14T00:28:03.625Z,980.83
2023-05-14T00:29:03.703Z,980.83
2023-05-14T00:30:03.872Z,980.75
2023-05-14T00:31:04.053Z,980.78
2023-05-14T00:32:03.729Z,980.75
2023-05-14T00:33:03.782Z,980.89
2023-05-14T00:34:03.707Z,980.81
2023-05-14T00:35:03.784Z,980.70
2023-05-14T00:36:03.659Z,980.81
2023-05-14T00:37:03.657Z,980.70
2023-05-14T00:38:03.717Z,980.73
2023-05-14T00:39:03.718Z,980.79
2023-05-14T00:40:03.800Z,980.79
2023-05-14T00:41:03.729Z,980.76
2023-05-14T00:43:03.770Z,980.68
2023-05-14T00:45:03.713Z,980.74
2023-05-14T00:46:03.914Z,980.79
2023-05-14T00:48:03.808Z,980.74
2023-05-14T00:49:03.726Z,980.74
2023-05-14T00:50:03.719Z,980.74
2023-05-14T00:51:03.775Z,980.69
2023-05-14T00:52:03.867Z,980.60
2023-05-14T00:54:03.673Z,980.83
2023-05-14T00:55:03.762Z,980.77
2023-05-14T00:56:03.910Z,980.72
2023-05-14T00:57:03.726Z,980.83
2023-05-14T00:58:03.727Z,980.75
2023-05-14T00:59:03.960Z,980.78
2023-05-14T01:00:03.723Z,980.86
2023-05-14T01:01:03.888Z,980.89
2023-05-14T01:02:03.719Z,980.84
2023-05-14T01:03:03.995Z,980.90
2023-05-14T01:04:03.845Z,980.84
2023-05-14T01:05:03.889Z,980.67
2023-05-14T01:07:03.756Z,980.87
2023-05-14T01:08:03.721Z,980.78
2023-05-14T01:09:03.913Z,980.70
2023-05-14T01:10:03.819Z,980.70
2023-05-14T01:11:03.744Z,980.81
2023-05-14T01:13:03.926Z,980.65
2023-05-14T01:16:03.856Z,980.62
2023-05-14T01:17:03.723Z,980.68
2023-05-14T01:18:03.849Z,980.62
2023-05-14T01:20:03.794Z,980.43
2023-05-14T01:22:03.749Z,980.60
2023-05-14T01:23:03.851Z,980.46
2023-05-14T01:24:03.714Z,980.60
2023-05-14T01:25:03.744Z,980.54
2023-05-14T01:26:03.790Z,980.49
2023-05-14T01:27:03.737Z,980.77
2023-05-14T01:28:03.791Z,980.60
2023-05-14T01:29:03.752Z,980.66
2023-05-14T01:30:03.795Z,980.60
2023-05-14T01:31:03.932Z,980.60
2023-05-14T01:32:03.909Z,980.60
2023-05-14T01:33:03.909Z,980.60
2023-05-14T01:34:03.729Z,980.66
2023-05-14T01:37:03.822Z,980.61
2023-05-14T01:38:03.766Z,980.66
2023-05-14T01:39:03.737Z,980.64
2023-05-14T01:41:03.844Z,980.58
2023-05-14T01:42:03.745Z,980.64
2023-05-14T01:43:03.912Z,980.69
2023-05-14T01:45:03.924Z,980.67
2023-05-14T01:46:03.881Z,980.61
2023-05-14T01:47:03.765Z,980.67
2023-05-14T01:48:03.932Z,980.61
2023-05-14T01:49:03.765Z,980.61
2023-05-14T01:50:03.782Z,980.64
2023-05-14T01:51:03.871Z,980.67
2023-05-14T01:53:03.812Z,980.67
2023-05-14T01:54:03.906Z,980.61
2023-05-14T01:55:03.804Z,980.59
2023-05-14T01:56:03.803Z,980.53
2023-05-14T01:57:03.789Z,980.62
2023-05-14T01:58:03.802Z,980.56
2023-05-14T01:59:03.911Z,980.65
2023-05-14T02:00:03.769Z,980.59
2023-05-14T02:01:03.878Z,980.56
2023-05-14T02:03:03.940Z,980.54
2023-05-14T02:05:06.988Z,980.60
2023-05-14T02:06:03.764Z,980.63
2023-05-14T02:07:03.820Z,980.51
2023-05-14T02:08:03.838Z,980.66
2023-05-14T02:09:03.932Z,980.49
2023-05-14T02:10:03.782Z,980.54
2023-05-14T02:11:03.794Z,980.52
2023-05-14T02:12:03.795Z,980.40
2023-05-14T02:13:03.833Z,980.43
2023-05-14T02:14:03.806Z,980.54
2023-05-14T02:15:03.776Z,980.40
2023-05-14T02:16:03.882Z,980.37
2023-05-14T02:17:03.860Z,980.46
2023-05-14T02:18:03.923Z,980.49
2023-05-14T02:19:03.891Z,980.40
2023-05-14T02:20:03.809Z,980.49
2023-05-14T02:21:03.894Z,980.40
2023-05-14T02:22:03.771Z,980.38
2023-05-14T02:23:03.859Z,980.49
2023-05-14T02:24:03.812Z,980.29
2023-05-14T02:25:03.869Z,980.29
2023-05-14T02:27:03.847Z,980.38
2023-05-14T02:28:03.937Z,980.46
2023-05-14T02:29:03.854Z,980.41
2023-05-14T02:30:03.865Z,980.21
2023-05-14T02:31:03.968Z,980.27
2023-05-14T02:32:03.985Z,980.47
2023-05-14T02:33:04.060Z,980.38
2023-05-14T02:34:03.792Z,980.44
2023-05-14T02:35:03.862Z,980.38
2023-05-14T02:36:03.924Z,980.27
2023-05-14T02:37:03.835Z,980.32
2023-05-14T02:38:03.862Z,980.50
2023-05-14T02:39:03.813Z,980.44
2023-05-14T02:40:03.795Z,980.50
2023-05-14T02:42:03.839Z,980.14
2023-05-14T02:43:03.813Z,980.30
2023-05-14T02:44:03.898Z,980.24
2023-05-14T02:46:03.819Z,980.17
2023-05-14T02:47:04.101Z,980.24
2023-05-14T02:49:03.884Z,980.17
2023-05-14T02:50:03.950Z,980.21
2023-05-14T02:52:03.814Z,980.24
2023-05-14T02:53:03.860Z,980.08
2023-05-14T02:54:03.796Z,980.11
2023-05-14T02:55:03.990Z,980.05
2023-05-14T02:57:03.841Z,980.08
2023-05-14T02:58:03.847Z,980.05
2023-05-14T02:59:04.341Z,980.17
2023-05-14T03:00:04.186Z,980.11
2023-05-14T03:01:04.316Z,980.14
2023-05-14T03:02:04.312Z,980.05
2023-05-14T03:03:04.361Z,980.02
2023-05-14T03:04:03.864Z,980.05
2023-05-14T03:07:03.886Z,980.05
2023-05-14T03:08:03.878Z,980.00
2023-05-14T03:09:03.960Z,979.97
2023-05-14T03:10:03.870Z,980.08
2023-05-14T03:11:03.842Z,980.06
2023-05-14T03:12:03.882Z,980.00
2023-05-14T03:13:03.836Z,979.97
2023-05-14T03:14:03.855Z,980.03
2023-05-14T03:15:03.855Z,980.03
2023-05-14T03:16:03.887Z,979.97
2023-05-14T03:17:04.236Z,979.97
2023-05-14T03:18:03.964Z,979.94
2023-05-14T03:19:04.100Z,980.03
2023-05-14T03:20:03.952Z,980.00
2023-05-14T03:22:03.869Z,979.91
2023-05-14T03:23:03.912Z,980.00
2023-05-14T03:24:03.850Z,979.86
2023-05-14T03:25:03.887Z,979.86
2023-05-14T03:26:04.136Z,979.86
2023-05-14T03:28:03.895Z,979.81
2023-05-14T03:29:03.976Z,979.86
2023-05-14T03:30:03.897Z,979.91
2023-05-14T03:31:03.978Z,979.84
2023-05-14T03:33:03.970Z,979.81
2023-05-14T03:34:03.857Z,979.73
2023-05-14T03:35:03.966Z,979.81
2023-05-14T03:36:03.879Z,979.64
2023-05-14T03:37:03.965Z,979.81
2023-05-14T03:40:03.896Z,979.61
2023-05-14T03:41:03.910Z,979.78
2023-05-14T03:42:03.895Z,979.73
2023-05-14T03:43:03.882Z,979.73
2023-05-14T03:44:03.971Z,979.75
2023-05-14T03:45:03.942Z,979.73
2023-05-14T03:46:03.889Z,979.75
2023-05-14T03:47:03.940Z,979.67
2023-05-14T03:48:04.046Z,979.64
2023-05-14T03:49:04.162Z,979.58
2023-05-14T03:50:03.956Z,979.64
2023-05-14T03:52:03.942Z,979.75
2023-05-14T03:53:03.927Z,979.61
2023-05-14T03:54:03.950Z,979.70
2023-05-14T03:55:03.923Z,979.58
2023-05-14T03:56:03.955Z,979.70
2023-05-14T03:57:03.949Z,979.55
2023-05-14T03:58:03.887Z,979.52
2023-05-14T03:59:03.954Z,979.61
2023-05-14T04:01:03.940Z,979.58
2023-05-14T04:02:03.933Z,979.58
2023-05-14T04:03:03.980Z,979.58
2023-05-14T04:04:04.094Z,979.58
2023-05-14T04:05:03.944Z,979.66
2023-05-14T04:06:03.962Z,979.55
2023-05-14T04:07:03.886Z,979.61
2023-05-14T04:08:03.960Z,979.61
2023-05-14T04:09:03.892Z,979.72
2023-05-14T04:12:03.914Z,979.60
2023-05-14T04:13:03.922Z,979.55
2023-05-14T04:14:03.939Z,979.69
2023-05-14T04:15:03.968Z,979.54
2023-05-14T04:16:04.060Z,979.54
2023-05-14T04:17:04.073Z,979.63
2023-05-14T04:18:03.973Z,979.54
2023-05-14T04:19:04.218Z,979.51
2023-05-14T04:20:03.928Z,979.48
2023-05-14T04:21:03.922Z,979.57
2023-05-14T04:22:03.959Z,979.42
2023-05-14T04:23:03.939Z,979.48
2023-05-14T04:24:03.937Z,979.76
2023-05-14T04:25:04.074Z,979.71
2023-05-14T04:26:03.932Z,979.65
2023-05-14T04:27:03.982Z,979.53
2023-05-14T04:28:03.996Z,979.59
2023-05-14T04:29:03.973Z,979.53
2023-05-14T04:30:03.949Z,979.62
2023-05-14T04:31:03.964Z,979.62
2023-05-14T04:32:04.155Z,979.50
2023-05-14T04:33:04.032Z,979.62
2023-05-14T04:34:03.900Z,979.65
2023-05-14T04:35:03.912Z,979.56
2023-05-14T04:36:03.983Z,979.59
2023-05-14T04:37:03.991Z,979.64
2023-05-14T04:38:03.991Z,979.67
2023-05-14T04:39:03.922Z,979.70
2023-05-14T04:40:04.030Z,979.47
2023-05-14T04:42:03.975Z,979.67
2023-05-14T04:43:03.926Z,979.63
2023-05-14T04:44:03.986Z,979.52
2023-05-14T04:45:03.911Z,979.54
2023-05-14T04:46:04.032Z,979.68
2023-05-14T04:47:04.010Z,979.42
2023-05-14T04:48:04.056Z,979.55
2023-05-14T04:49:03.922Z,979.46
2023-05-14T04:50:03.940Z,979.40
2023-05-14T04:51:07.225Z,979.57
2023-05-14T04:53:03.964Z,979.62
2023-05-14T04:54:04.042Z,979.56
2023-05-14T04:56:03.995Z,979.56
2023-05-14T04:57:04.010Z,979.70
2023-05-14T04:58:03.969Z,979.62
2023-05-14T04:59:03.984Z,979.61
2023-05-14T05:00:03.933Z,979.66
2023-05-14T05:01:04.019Z,979.66
2023-05-14T05:02:03.958Z,979.71
2023-05-14T05:03:04.157Z,979.68
2023-05-14T05:04:04.069Z,979.62
2023-05-14T05:06:03.989Z,979.55
2023-05-14T05:07:03.982Z,979.69
2023-05-14T05:08:04.006Z,979.71
2023-05-14T05:10:03.994Z,979.57
2023-05-14T05:11:03.983Z,979.65
2023-05-14T05:12:03.969Z,979.64
2023-05-14T05:13:03.997Z,979.57
2023-05-14T05:14:04.064Z,979.53
2023-05-14T05:15:03.980Z,979.55
2023-05-14T05:16:04.103Z,979.62
2023-05-14T05:17:04.046Z,979.78
2023-05-14T05:18:04.150Z,979.66
2023-05-14T05:20:04.053Z,979.89
2023-05-14T05:21:04.024Z,979.77
2023-05-14T05:22:04.060Z,979.82
2023-05-14T05:23:04.058Z,979.95
2023-05-14T05:24:04.102Z,979.84
2023-05-14T05:25:04.003Z,980.12
2023-05-14T05:26:04.020Z,980.06
2023-05-14T05:27:04.056Z,980.11
2023-05-14T05:28:03.981Z,980.14
2023-05-14T05:29:04.034Z,980.33
2023-05-14T05:30:04.091Z,980.29
2023-05-14T05:31:04.053Z,980.23
2023-05-14T05:32:04.020Z,980.40
2023-05-14T05:33:04.147Z,980.34
2023-05-14T05:34:04.029Z,980.37
2023-05-14T05:35:04.051Z,980.22
2023-05-14T05:36:04.026Z,980.39
2023-05-14T05:37:04.069Z,980.21
2023-05-14T05:38:04.037Z,980.35
2023-05-14T05:39:04.000Z,980.28
2023-05-14T05:40:04.073Z,980.39
2023-05-14T05:41:04.003Z,980.48
2023-05-14T05:42:04.005Z,980.56
2023-05-14T05:43:04.026Z,980.56
2023-05-14T05:44:04.026Z,980.51
2023-05-14T05:45:03.977Z,980.60
2023-05-14T05:46:04.078Z,980.75
2023-05-14T05:47:04.090Z,980.75
2023-05-14T05:48:04.112Z,980.70
2023-05-14T05:50:04.085Z,980.82
2023-05-14T05:51:04.010Z,980.94
2023-05-14T05:52:04.015Z,980.92
2023-05-14T05:53:04.060Z,980.95
2023-05-14T05:55:04.058Z,980.87
2023-05-14T05:56:04.115Z,980.82
2023-05-14T05:57:04.052Z,980.82
2023-05-14T05:58:04.016Z,980.85
2023-05-14T05:59:04.060Z,980.83
2023-05-14T06:00:04.143Z,981.00
2023-05-14T06:01:03.984Z,980.80
2023-05-14T06:03:04.165Z,980.80
2023-05-14T06:04:04.019Z,980.81
2023-05-14T06:05:04.182Z,980.89
2023-05-14T06:06:04.019Z,980.89
2023-05-14T06:07:04.102Z,980.95
2023-05-14T06:09:04.070Z,980.90
2023-05-14T06:10:04.103Z,980.87
2023-05-14T06:11:04.037Z,980.96
2023-05-14T06:12:04.077Z,980.90
2023-05-14T06:13:04.029Z,980.76
2023-05-14T06:14:04.079Z,980.93
2023-05-14T06:15:04.068Z,980.79
2023-05-14T06:16:04.098Z,981.04
2023-05-14T06:17:04.127Z,980.84
2023-05-14T06:18:04.034Z,980.76
2023-05-14T06:19:04.142Z,980.84
2023-05-14T06:20:04.093Z,980.87
2023-05-14T06:21:04.117Z,980.75
2023-05-14T06:23:04.112Z,980.75
2023-05-14T06:24:04.082Z,980.78
2023-05-14T06:25:04.068Z,980.78
2023-05-14T06:26:04.119Z,980.75
2023-05-14T06:27:04.065Z,980.72
2023-05-14T06:28:04.070Z,980.63
2023-05-14T06:29:04.079Z,980.57
2023-05-14T06:30:04.096Z,980.77
2023-05-14T06:31:04.083Z,980.60
2023-05-14T06:32:04.113Z,980.63
2023-05-14T06:33:04.286Z,980.62
2023-05-14T06:34:04.104Z,980.74
2023-05-14T06:35:04.178Z,980.59
2023-05-14T06:37:04.201Z,980.65
2023-05-14T06:38:04.069Z,980.70
2023-05-14T06:39:04.139Z,980.61
2023-05-14T06:40:04.037Z,980.61
2023-05-14T06:41:04.111Z,980.61
2023-05-14T06:42:04.050Z,980.72
2023-05-14T06:43:04.044Z,980.66
2023-05-14T06:44:04.087Z,980.55
2023-05-14T06:45:04.072Z,980.60
2023-05-14T06:46:04.091Z,980.57
2023-05-14T06:47:04.143Z,980.71
2023-05-14T06:48:04.097Z,980.71
2023-05-14T06:51:11.348Z,980.67
2023-05-14T06:53:11.462Z,980.61
2023-05-14T06:55:04.148Z,980.58
2023-05-14T06:56:04.098Z,980.69
2023-05-14T06:57:04.080Z,980.84
2023-05-14T06:58:04.056Z,980.78
2023-05-14T06:59:04.108Z,980.78
2023-05-14T07:00:04.394Z,980.66
2023-05-14T07:01:04.114Z,980.81
2023-05-14T07:02:04.105Z,980.86
2023-05-14T07:03:04.212Z,980.86
2023-05-14T07:04:04.098Z,980.77
2023-05-14T07:05:04.113Z,980.79
2023-05-14T07:06:04.084Z,980.82
2023-05-14T07:07:04.113Z,980.78
2023-05-14T07:08:04.115Z,980.83
2023-05-14T07:09:04.108Z,980.89
2023-05-14T07:10:04.098Z,980.77
2023-05-14T07:11:04.087Z,980.88
2023-05-14T07:13:04.118Z,980.87
2023-05-14T07:14:04.118Z,980.96
2023-05-14T07:15:04.149Z,980.84
2023-05-14T07:16:04.151Z,980.90
2023-05-14T07:17:04.207Z,980.92
2023-05-14T07:18:04.216Z,980.89
2023-05-14T07:19:04.188Z,980.86
2023-05-14T07:20:04.141Z,980.94
2023-05-14T07:21:04.086Z,981.00
2023-05-14T07:22:04.124Z,980.94
2023-05-14T07:23:04.163Z,981.03
2023-05-14T07:24:04.134Z,980.94
2023-05-14T07:25:04.198Z,980.91
2023-05-14T07:26:04.163Z,981.00
2023-05-14T07:27:04.175Z,981.00
2023-05-14T07:28:04.113Z,980.96
2023-05-14T07:29:04.152Z,980.93
2023-05-14T07:30:04.127Z,981.02
2023-05-14T07:31:04.226Z,980.90
2023-05-14T07:32:04.155Z,980.96
2023-05-14T07:33:04.329Z,981.05
2023-05-14T07:34:04.099Z,980.87
2023-05-14T07:35:04.211Z,981.02
2023-05-14T07:36:04.085Z,980.93
2023-05-14T07:37:04.170Z,980.99
2023-05-14T07:38:04.118Z,981.07
2023-05-14T07:39:04.110Z,981.07
2023-05-14T07:40:04.120Z,980.93
2023-05-14T07:41:04.164Z,980.98
2023-05-14T07:42:04.143Z,981.04
2023-05-14T07:44:04.131Z,981.04
2023-05-14T07:45:04.161Z,981.07
2023-05-14T07:46:04.235Z,981.15
2023-05-14T07:47:04.210Z,981.00
2023-05-14T07:49:04.339Z,981.02
2023-05-14T07:51:04.192Z,981.14
2023-05-14T07:52:04.148Z,981.05
2023-05-14T07:53:04.139Z,981.08
2023-05-14T07:54:04.177Z,981.17
2023-05-14T07:56:04.151Z,981.11
2023-05-14T07:57:04.228Z,981.22
2023-05-14T07:58:04.285Z,981.19
2023-05-14T07:59:04.149Z,981.11
2023-05-14T08:00:04.193Z,981.19
2023-05-14T08:01:04.144Z,981.08
2023-05-14T08:02:04.463Z,981.11
2023-05-14T08:03:04.527Z,981.11
2023-05-14T08:04:04.245Z,981.16
2023-05-14T08:05:04.150Z,981.13
2023-05-14T08:06:04.224Z,981.22
2023-05-14T08:07:04.180Z,981.10
2023-05-14T08:08:04.198Z,981.13
2023-05-14T08:09:04.226Z,981.13
2023-05-14T08:10:04.243Z,981.16
2023-05-14T08:11:04.155Z,981.13
2023-05-14T08:12:04.189Z,981.10
2023-05-14T08:13:04.171Z,981.10
2023-05-14T08:14:04.204Z,981.15
2023-05-14T08:15:04.200Z,981.15
2023-05-14T08:16:04.142Z,981.06
2023-05-14T08:17:04.449Z,981.21
2023-05-14T08:18:04.271Z,981.18
2023-05-14T08:19:04.311Z,981.15
2023-05-14T08:20:04.165Z,981.03
2023-05-14T08:21:04.354Z,981.27
2023-05-14T08:22:04.165Z,981.12
2023-05-14T08:23:04.213Z,981.18
2023-05-14T08:24:04.229Z,981.07
2023-05-14T08:25:04.271Z,981.07
2023-05-14T08:26:04.175Z,981.18
2023-05-14T08:27:04.242Z,981.19
2023-05-14T08:28:04.219Z,981.19
2023-05-14T08:29:04.176Z,981.22
2023-05-14T08:30:04.225Z,981.25
2023-05-14T08:31:04.253Z,981.28
2023-05-14T08:32:23.174Z,981.20
2023-05-14T08:33:04.269Z,981.23
2023-05-14T08:34:04.199Z,981.29
2023-05-14T08:35:04.193Z,981.21
2023-05-14T08:36:04.236Z,981.27
2023-05-14T08:38:04.262Z,981.10
2023-05-14T08:39:04.232Z,981.04
2023-05-14T08:40:04.180Z,981.16
2023-05-14T08:41:04.189Z,981.13
2023-05-14T08:42:04.264Z,981.16
2023-05-14T08:43:04.211Z,981.07
2023-05-14T08:44:04.231Z,981.10
2023-05-14T08:45:04.194Z,981.16
2023-05-14T08:46:04.277Z,981.07
2023-05-14T08:47:04.230Z,981.16
2023-05-14T08:48:04.494Z,981.01
2023-05-14T08:49:04.305Z,981.04
2023-05-14T08:50:04.237Z,981.07
2023-05-14T08:51:04.241Z,981.04
2023-05-14T08:52:04.188Z,981.04
2023-05-14T08:53:04.260Z,980.95
2023-05-14T08:54:04.224Z,980.82
2023-05-14T08:55:04.297Z,981.05
2023-05-14T08:56:04.221Z,980.79
2023-05-14T08:57:04.322Z,980.58
2023-05-14T08:58:04.176Z,980.90
2023-05-14T08:59:04.217Z,980.84
2023-05-14T09:00:04.227Z,980.84
2023-05-14T09:01:04.189Z,980.98
2023-05-14T09:02:04.395Z,980.75
2023-05-14T09:03:04.286Z,980.98
2023-05-14T09:04:04.362Z,981.01
2023-05-14T09:05:04.192Z,980.92
2023-05-14T09:06:04.280Z,980.90
2023-05-14T09:07:04.226Z,981.13
2023-05-14T09:08:04.228Z,980.99
2023-05-14T09:09:04.251Z,980.96
2023-05-14T09:10:04.401Z,981.02
2023-05-14T09:11:04.289Z,980.87
2023-05-14T09:12:04.318Z,980.90
2023-05-14T09:13:04.300Z,980.96
2023-05-14T09:14:04.249Z,980.90
2023-05-14T09:15:04.259Z,981.02
2023-05-14T09:16:04.332Z,980.99
2023-05-14T09:17:04.216Z,980.94
2023-05-14T09:18:04.616Z,980.88
2023-05-14T09:19:04.364Z,980.85
2023-05-14T09:21:04.302Z,980.74
2023-05-14T09:22:04.380Z,980.91
2023-05-14T09:23:04.223Z,980.79
2023-05-14T09:24:04.247Z,980.82
2023-05-14T09:25:04.275Z,980.79
2023-05-14T09:26:04.217Z,980.82
2023-05-14T09:27:04.273Z,980.73
2023-05-14T09:28:04.246Z,980.79
2023-05-14T09:29:04.202Z,980.68
2023-05-14T09:30:04.266Z,980.94
2023-05-14T09:31:04.336Z,980.74
2023-05-14T09:32:04.529Z,980.80
2023-05-14T09:33:04.375Z,980.68
2023-05-14T09:34:04.264Z,980.91
2023-05-14T09:35:04.266Z,980.62
2023-05-14T09:36:04.278Z,980.65
2023-05-14T09:37:04.278Z,980.71
2023-05-14T09:38:04.269Z,980.63
2023-05-14T09:40:04.277Z,980.80
2023-05-14T09:41:04.287Z,980.66
2023-05-14T09:42:04.281Z,980.69
2023-05-14T09:43:04.305Z,980.60
2023-05-14T09:44:06.976Z,980.66
2023-05-14T09:46:04.283Z,980.63
2023-05-14T09:47:04.253Z,980.66
2023-05-14T09:48:04.502Z,980.69
2023-05-14T09:49:04.234Z,980.60
2023-05-14T09:50:04.254Z,980.51
2023-05-14T09:51:05.311Z,980.63
2023-05-14T09:52:04.296Z,980.40
2023-05-14T09:54:04.312Z,980.51
2023-05-14T09:55:04.253Z,980.45
2023-05-14T09:56:04.278Z,980.45
2023-05-14T09:57:04.261Z,980.37
2023-05-14T09:59:04.318Z,980.33
2023-05-14T10:00:04.272Z,980.36
2023-05-14T10:02:04.267Z,980.27
2023-05-14T10:03:04.436Z,980.27
2023-05-14T10:04:04.331Z,980.30
2023-05-14T10:05:04.272Z,980.27
2023-05-14T10:06:04.311Z,980.07
2023-05-14T10:07:04.312Z,980.07
2023-05-14T10:08:04.242Z,980.13
2023-05-14T10:09:04.305Z,980.18
2023-05-14T10:10:04.254Z,980.18
2023-05-14T10:11:04.526Z,980.03
2023-05-14T10:12:04.294Z,980.05
2023-05-14T10:13:04.307Z,980.08
2023-05-14T10:14:04.314Z,980.05
2023-05-14T10:15:04.320Z,980.10
2023-05-14T10:16:04.349Z,980.04
2023-05-14T10:17:04.358Z,980.07
2023-05-14T10:18:04.424Z,980.07
2023-05-14T10:20:04.278Z,980.01
2023-05-14T10:21:04.312Z,980.10
2023-05-14T10:22:04.449Z,980.07
2023-05-14T10:23:04.332Z,980.04
2023-05-14T10:24:04.302Z,980.10
2023-05-14T10:25:04.371Z,980.01
2023-05-14T10:26:04.430Z,980.10
2023-05-14T10:27:04.302Z,980.04
2023-05-14T10:28:04.360Z,979.98
2023-05-14T10:29:04.268Z,980.01
2023-05-14T10:30:04.301Z,980.06
2023-05-14T10:31:04.400Z,980.03
2023-05-14T10:32:04.282Z,980.00
2023-05-14T10:33:04.400Z,980.03
2023-05-14T10:35:04.339Z,980.11
2023-05-14T10:36:04.380Z,979.97
2023-05-14T10:37:04.286Z,980.03
2023-05-14T10:38:04.361Z,980.06
2023-05-14T10:39:04.282Z,980.03
2023-05-14T10:40:04.340Z,980.06
2023-05-14T10:41:04.304Z,980.05
2023-05-14T10:42:04.331Z,979.97
2023-05-14T10:43:04.343Z,980.14
2023-05-14T10:45:04.317Z,979.99
2023-05-14T10:47:04.413Z,979.99
2023-05-14T10:48:04.402Z,980.08
2023-05-14T10:50:04.338Z,980.07
2023-05-14T10:51:04.270Z,979.85
2023-05-14T10:52:04.282Z,979.99
2023-05-14T10:53:04.313Z,979.93
2023-05-14T10:54:04.308Z,979.87
2023-05-14T10:55:04.293Z,979.90
2023-05-14T10:56:04.345Z,980.04
2023-05-14T10:57:04.276Z,979.92
2023-05-14T10:58:04.358Z,979.89
2023-05-14T10:59:04.345Z,979.95
2023-05-14T11:00:04.348Z,980.01
2023-05-14T11:01:04.314Z,979.98
2023-05-14T11:02:04.460Z,979.81
2023-05-14T11:04:04.410Z,979.94
2023-05-14T11:06:04.368Z,979.91
2023-05-14T11:07:04.315Z,980.03
2023-05-14T11:08:04.326Z,979.91
2023-05-14T11:09:04.296Z,980.00
2023-05-14T11:10:04.338Z,979.88
2023-05-14T11:11:04.326Z,980.00
2023-05-14T11:12:04.322Z,979.95
2023-05-14T11:13:04.343Z,980.06
2023-05-14T11:14:04.371Z,980.01
2023-05-14T11:15:04.395Z,980.07
2023-05-14T11:17:04.463Z,979.87
2023-05-14T11:18:04.312Z,979.90
2023-05-14T11:19:04.565Z,979.92
2023-05-14T11:20:04.307Z,979.95
2023-05-14T11:21:04.370Z,979.92
2023-05-14T11:22:04.348Z,979.89
2023-05-14T11:23:04.401Z,979.81
2023-05-14T11:24:04.332Z,979.81
2023-05-14T11:25:04.307Z,979.86
2023-05-14T11:26:04.407Z,979.70
2023-05-14T11:28:04.374Z,979.70
2023-05-14T11:29:04.323Z,979.76
2023-05-14T11:30:04.358Z,979.85
2023-05-14T11:31:04.366Z,979.79
2023-05-14T11:32:04.420Z,979.77
2023-05-14T11:33:04.373Z,979.85
2023-05-14T11:34:04.421Z,979.74
2023-05-14T11:35:04.329Z,979.80
2023-05-14T11:36:04.337Z,979.63
2023-05-14T11:37:04.377Z,979.88
2023-05-14T11:38:04.317Z,979.77
2023-05-14T11:39:04.370Z,979.75
2023-05-14T11:40:04.450Z,979.75
2023-05-14T11:41:04.352Z,979.72
2023-05-14T11:42:04.388Z,979.89
2023-05-14T11:43:04.347Z,979.73
2023-05-14T11:44:04.402Z,979.70
2023-05-14T11:45:04.371Z,979.73
2023-05-14T11:46:04.521Z,979.82
2023-05-14T11:47:04.346Z,979.70
2023-05-14T11:48:04.459Z,979.70
2023-05-14T11:49:04.439Z,979.79
2023-05-14T11:50:04.368Z,979.73
2023-05-14T11:52:04.402Z,979.70
2023-05-14T11:53:04.381Z,979.73
2023-05-14T11:54:04.416Z,979.68
2023-05-14T11:55:04.448Z,979.71
2023-05-14T11:56:04.385Z,979.65
2023-05-14T11:57:04.375Z,979.74
2023-05-14T11:58:04.377Z,979.62
2023-05-14T11:59:04.421Z,979.68
2023-05-14T12:00:04.428Z,979.80
2023-05-14T12:02:04.425Z,979.62
2023-05-14T12:03:04.566Z,979.65
2023-05-14T12:04:04.388Z,979.68
2023-05-14T12:05:04.368Z,979.54
2023-05-14T12:06:04.369Z,979.66
2023-05-14T12:07:04.385Z,979.66
2023-05-14T12:08:04.358Z,979.54
2023-05-14T12:09:04.372Z,979.49
2023-05-14T12:10:04.360Z,979.49
2023-05-14T12:11:04.422Z,979.46
2023-05-14T12:12:04.366Z,979.52
2023-05-14T12:13:04.417Z,979.46
2023-05-14T12:14:04.438Z,979.43
2023-05-14T12:16:04.448Z,979.46
2023-05-14T12:17:04.346Z,979.40
2023-05-14T12:18:23.251Z,979.52
2023-05-14T12:19:04.454Z,979.40
2023-05-14T12:20:04.393Z,979.34
2023-05-14T12:21:04.439Z,979.31
2023-05-14T12:22:04.397Z,979.49
2023-05-14T12:24:04.430Z,979.29
2023-05-14T12:25:04.457Z,979.23
2023-05-14T12:26:04.448Z,979.40
2023-05-14T12:27:04.381Z,979.40
2023-05-14T12:28:04.385Z,979.38
2023-05-14T12:29:04.416Z,979.17
2023-05-14T12:30:19.711Z,979.26
2023-05-14T12:31:04.550Z,979.32
2023-05-14T12:32:04.418Z,979.29
2023-05-14T12:33:04.523Z,979.26
2023-05-14T12:34:04.466Z,979.29
2023-05-14T12:35:04.405Z,979.14
2023-05-14T12:36:22.333Z,979.17
2023-05-14T12:37:04.482Z,979.26
2023-05-14T12:38:04.456Z,979.29
2023-05-14T12:39:04.423Z,979.20
2023-05-14T12:40:04.424Z,979.12
2023-05-14T12:42:04.431Z,979.20
2023-05-14T12:43:04.391Z,979.23
2023-05-14T12:44:04.449Z,979.24
2023-05-14T12:45:04.378Z,979.29
2023-05-14T12:46:04.437Z,979.24
2023-05-14T12:47:04.424Z,979.09
2023-05-14T12:48:04.510Z,979.10
2023-05-14T12:49:04.509Z,979.10
2023-05-14T12:50:04.391Z,979.21
2023-05-14T12:51:04.397Z,979.01
2023-05-14T12:52:22.651Z,979.07
2023-05-14T12:53:04.411Z,979.04
2023-05-14T12:54:04.428Z,978.87
2023-05-14T12:55:04.453Z,978.93
2023-05-14T12:56:04.378Z,979.02
2023-05-14T12:57:04.443Z,978.88
2023-05-14T12:58:04.475Z,978.85
2023-05-14T13:00:04.433Z,978.82
2023-05-14T13:01:04.496Z,978.91
2023-05-14T13:02:04.469Z,978.88
2023-05-14T13:03:04.616Z,978.79
2023-05-14T13:04:04.531Z,978.70
2023-05-14T13:05:04.461Z,978.73
2023-05-14T13:06:04.466Z,978.71
2023-05-14T13:08:04.511Z,978.71
2023-05-14T13:09:16.601Z,978.65
2023-05-14T13:10:08.742Z,978.65
2023-05-14T13:12:04.443Z,978.59
2023-05-14T13:13:04.471Z,978.68
2023-05-14T13:14:04.428Z,978.65
2023-05-14T13:15:04.489Z,978.65
2023-05-14T13:16:04.418Z,978.62
2023-05-14T13:17:04.652Z,978.59
2023-05-14T13:18:04.632Z,978.71
2023-05-14T13:19:04.550Z,978.62
2023-05-14T13:20:04.446Z,978.65
2023-05-14T13:21:04.445Z,978.62
2023-05-14T13:23:04.491Z,978.48
2023-05-14T13:24:04.451Z,978.37
2023-05-14T13:25:04.499Z,978.51
2023-05-14T13:26:04.407Z,978.53
2023-05-14T13:27:04.438Z,978.40
2023-05-14T13:28:04.467Z,978.34
2023-05-14T13:29:04.480Z,978.45
2023-05-14T13:30:04.479Z,978.43
2023-05-14T13:31:04.618Z,978.40
2023-05-14T13:32:04.451Z,978.31
2023-05-14T13:33:04.519Z,978.37
2023-05-14T13:34:04.475Z,978.37
2023-05-14T13:36:04.510Z,978.40
2023-05-14T13:37:04.538Z,978.19
2023-05-14T13:38:04.442Z,978.37
2023-05-14T13:39:04.493Z,978.34
2023-05-14T13:40:04.513Z,978.31
2023-05-14T13:41:04.524Z,978.25
2023-05-14T13:42:04.474Z,978.25
2023-05-14T13:43:04.461Z,978.36
2023-05-14T13:44:04.485Z,978.33
2023-05-14T13:45:04.454Z,978.34
2023-05-14T13:46:04.512Z,978.31
2023-05-14T13:47:04.497Z,978.25
2023-05-14T13:48:04.586Z,978.28
2023-05-14T13:49:04.553Z,978.22
2023-05-14T13:50:04.469Z,978.33
2023-05-14T13:51:04.492Z,978.34
2023-05-14T13:52:04.539Z,978.19
2023-05-14T13:53:04.500Z,978.19
2023-05-14T13:54:04.635Z,978.19